»·PEaware :: AAL31 KLAS-KLAX

AAL31 :: KLAS-KLAX

FLIGHT INFORMATION

Flight Status: Arrived
Operator:
American Airlines
More flights by this operator :: More flights under this callsign
Pilot: Ben F. (2808)
Aircraft: BOEING 727-200
(B722)
More flights by this aircraft type
Origin: KLAS McCarran Intl
United States
Destination: KLAX Los Angeles Intl
United States
More flights between these airports :: More routes between these airports
Route: MCCRN5 TNP SEAVU2
File this flight plan on PilotEdge
Remarks: I like my air boss today...best controller ever
Altitude:
(Current/Filed)
28,000ft
Speed:
(Current/Filed)
495kts
Departed: 13-Nov-18 09:19 AM
Arrived: 13-Nov-18 10:04 AM
Distance/Time
Traveled:
205nm/0:45
Distance/Time
To Go:
Arrived

Flight Plot

Page will automatically refresh every two minutes.

Flight plan parsing failed; only flown route is shown


Map Options




Map Legend


Flown Route
Filed Route
Departure Airport
Arrival Airport
Navaid (VOR, NDB)
Fix

Horizontal Profiles

Position Reports

Time Latitude Longitude Heading Altitude Ground
Speed
13-Nov-18 08:59 36.080612 -115.140631 134 2153ft 0kts
13-Nov-18 09:00 36.080612 -115.140631 134 2153ft 0kts
13-Nov-18 09:01 36.080612 -115.140631 134 2153ft 0kts
13-Nov-18 09:02 36.080612 -115.140631 134 2153ft 0kts
13-Nov-18 09:03 36.080612 -115.140631 134 2153ft 0kts
13-Nov-18 09:04 36.080612 -115.140631 134 2153ft 0kts
13-Nov-18 09:05 36.080612 -115.140631 134 2153ft 0kts
13-Nov-18 09:06 36.080612 -115.140631 134 2153ft 0kts
13-Nov-18 09:07 36.080612 -115.140631 134 2153ft 0kts
13-Nov-18 09:08 36.080877 -115.140964 134 2153ft 2kts
13-Nov-18 09:09 36.081330 -115.141113 231 2153ft 1kts
13-Nov-18 09:10 36.081363 -115.141064 225 2153ft 0kts
13-Nov-18 09:11 36.081363 -115.141064 225 2153ft 0kts
13-Nov-18 09:12 36.081055 -115.141452 224 2153ft 0kts
13-Nov-18 09:13 36.079161 -115.141643 180 2153ft 5kts
13-Nov-18 09:14 36.079084 -115.141644 180 2153ft 0kts
13-Nov-18 09:15 36.078235 -115.140151 89 2153ft 20kts
13-Nov-18 09:16 36.078251 -115.131238 89 2153ft 26kts
13-Nov-18 09:17 36.078078 -115.122468 120 2153ft 20kts
13-Nov-18 09:18 36.077519 -115.121610 137 2153ft 0kts
13-Nov-18 09:19 36.077519 -115.121610 137 2153ft 0kts
13-Nov-18 09:20 36.077519 -115.121610 137 2153ft 0kts
13-Nov-18 09:21 36.076406 -115.122825 269 2153ft 16kts
13-Nov-18 09:22 36.076799 -115.166274 272 3045ft 178kts
13-Nov-18 09:23 36.073839 -115.226506 223 5115ft 190kts
13-Nov-18 09:24 36.019657 -115.253353 197 6753ft 251kts
13-Nov-18 09:25 35.942236 -115.234121 162 8779ft 316kts
13-Nov-18 09:26 35.860012 -115.223699 175 11996ft 322kts
13-Nov-18 09:27 35.762990 -115.217220 176 13839ft 370kts
13-Nov-18 09:28 35.658619 -115.210484 176 16298ft 386kts
13-Nov-18 09:29 35.549847 -115.203511 176 18451ft 400kts
13-Nov-18 09:30 35.437201 -115.196318 177 20348ft 413kts
13-Nov-18 09:31 35.321085 -115.188931 177 22031ft 425kts
13-Nov-18 09:32 35.201914 -115.181377 177 23653ft 432kts
13-Nov-18 09:33 35.084089 -115.199635 200 25053ft 435kts
13-Nov-18 09:34 34.969818 -115.249041 202 26287ft 443kts
13-Nov-18 09:35 34.857712 -115.298465 202 27344ft 450kts
13-Nov-18 09:36 34.740356 -115.350116 202 28446ft 454kts
13-Nov-18 09:37 34.619870 -115.403027 202 28700ft 478kts
13-Nov-18 09:38 34.491541 -115.459168 202 28709ft 504kts
13-Nov-18 09:39 34.358132 -115.517455 203 28703ft 513kts
13-Nov-18 09:40 34.248267 -115.620308 225 28705ft 499kts
13-Nov-18 09:41 34.149879 -115.729620 226 28586ft 496kts
13-Nov-18 09:42 34.099480 -115.873037 262 28434ft 472kts
13-Nov-18 09:43 34.075520 -116.025974 264 28267ft 464kts
13-Nov-18 09:44 34.053066 -116.175963 264 26779ft 447kts
13-Nov-18 09:45 34.031339 -116.320539 264 25298ft 433kts
13-Nov-18 09:46 34.010059 -116.461050 264 23804ft 423kts
13-Nov-18 09:47 33.997710 -116.598152 269 22019ft 404kts
13-Nov-18 09:48 33.987819 -116.723772 268 20331ft 392kts
13-Nov-18 09:49 33.978721 -116.841158 268 18712ft 383kts
13-Nov-18 09:50 33.968871 -116.966834 267 17197ft 366kts
13-Nov-18 09:51 33.959205 -117.088981 267 17036ft 382kts
13-Nov-18 09:52 33.948355 -117.211965 267 16104ft 356kts
13-Nov-18 09:53 33.938202 -117.326029 267 14934ft 336kts
13-Nov-18 09:54 33.956761 -117.431273 293 13275ft 327kts
13-Nov-18 09:55 33.982809 -117.535612 285 11429ft 332kts
13-Nov-18 09:56 34.001832 -117.641725 285 10016ft 323kts
13-Nov-18 09:57 34.003751 -117.736321 266 9556ft 290kts
13-Nov-18 09:58 33.978562 -117.822911 265 8671ft 269kts
13-Nov-18 09:59 33.977437 -117.909195 274 7588ft 263kts
13-Nov-18 10:00 33.976284 -117.997229 265 6413ft 263kts
13-Nov-18 10:01 33.968345 -118.081801 263 5236ft 261kts
13-Nov-18 10:02 33.960168 -118.160047 264 3869ft 218kts
13-Nov-18 10:03 33.953251 -118.227910 264 2753ft 187kts
13-Nov-18 10:04 33.947749 -118.282012 263 1821ft 151kts
13-Nov-18 10:05 33.942863 -118.329668 263 1023ft 138kts
13-Nov-18 10:06 33.938148 -118.375481 262 336ft 139kts
13-Nov-18 10:07 33.935962 -118.402764 291 139ft 21kts
13-Nov-18 10:08 33.936214 -118.404717 265 139ft 14kts
13-Nov-18 10:09 33.936573 -118.408925 346 139ft 15kts
13-Nov-18 10:10 33.938775 -118.408127 82 139ft 12kts
13-Nov-18 10:11 33.939799 -118.405565 311 139ft 6kts
13-Nov-18 10:12 33.940006 -118.406034 293 139ft 0kts
13-Nov-18 10:13 33.940006 -118.406034 293 139ft 0kts

Navigation Log

Ident Type
Flight plan parsing failed, navigation log unavailable